Time;durP1;ratioP1;P1;durP2;ratioP2;P2;SDS_P1;SDS_P2;PMS_P1;PMS_P2;Temp;Humidity;BMP_temperature;BMP_pressure;BME280_temperature;BME280_humidity;BME280_pressure;Samples;Min_cycle;Max_cycle;Signal;HPM_P1;HPM_P2
2024/01/05 00:00:09;;;;;;;9.73;5.05;;;;;;;;;;4918025;29;20039;-73
2024/01/05 00:02:35;;;;;;;10.60;4.72;;;;;;;;;;4918025;29;20513;-71
2024/01/05 00:05:00;;;;;;;10.48;5.05;;;;;;;;;;4917907;29;20092;-71
2024/01/05 08:14:51;;;;;;;4.13;3.35;;;;;;;;;;5056175;23;20083;-68
2024/01/05 08:17:20;;;;;;;4.05;3.20;;;;;;;;;;4943206;28;20071;-67
2024/01/05 08:19:46;;;;;;;4.38;3.55;;;;;;;;;;4942879;29;20023;-68
2024/01/05 08:22:11;;;;;;;4.78;2.97;;;;;;;;;;4943702;29;20028;-69
2024/01/05 08:24:37;;;;;;;4.07;3.25;;;;;;;;;;4944622;29;20031;-70
2024/01/05 08:27:03;;;;;;;5.28;3.47;;;;;;;;;;4943104;29;20027;-68
2024/01/05 08:29:29;;;;;;;3.53;3.03;;;;;;;;;;4944727;29;20494;-68
2024/01/05 08:31:55;;;;;;;4.30;3.10;;;;;;;;;;4945113;28;20027;-67
2024/01/05 08:34:21;;;;;;;3.97;3.03;;;;;;;;;;4942464;29;20126;-69
2024/01/05 08:36:46;;;;;;;3.90;3.28;;;;;;;;;;4938744;29;20099;-74
2024/01/05 08:39:12;;;;;;;5.85;3.38;;;;;;;;;;4936855;29;20481;-72
2024/01/05 08:41:38;;;;;;;6.38;3.50;;;;;;;;;;4937630;29;20166;-73
2024/01/05 08:44:04;;;;;;;4.40;3.03;;;;;;;;;;4937286;29;20027;-73
2024/01/05 08:46:30;;;;;;;5.28;3.47;;;;;;;;;;4937330;29;20031;-73
2024/01/05 08:48:55;;;;;;;3.83;2.90;;;;;;;;;;4937486;29;20031;-73
2024/01/05 08:51:21;;;;;;;3.75;2.97;;;;;;;;;;4940158;28;20019;-73
2024/01/05 08:53:47;;;;;;;3.38;3.08;;;;;;;;;;4945571;29;20031;-74
2024/01/05 08:56:13;;;;;;;3.58;2.70;;;;;;;;;;4945592;29;20030;-74
2024/01/05 08:58:40;;;;;;;4.13;3.10;;;;;;;;;;4942867;29;20042;-74
2024/01/05 09:01:06;;;;;;;4.30;3.08;;;;;;;;;;4942447;28;20887;-73
2024/01/05 09:03:32;;;;;;;4.78;3.15;;;;;;;;;;4942283;29;20031;-73
2024/01/05 09:05:58;;;;;;;3.25;2.92;;;;;;;;;;4940402;28;20041;-72
2024/01/05 09:08:23;;;;;;;4.18;3.00;;;;;;;;;;4941963;29;20101;-73
2024/01/05 09:10:49;;;;;;;4.50;3.08;;;;;;;;;;4940356;29;20477;-74
2024/01/05 09:13:14;;;;;;;4.75;3.13;;;;;;;;;;4942950;28;20047;-73
2024/01/05 09:15:40;;;;;;;4.57;3.30;;;;;;;;;;4945204;29;20110;-74
2024/01/05 09:18:06;;;;;;;3.42;2.95;;;;;;;;;;4944646;29;20023;-73
2024/01/05 09:20:31;;;;;;;4.53;3.42;;;;;;;;;;4944404;28;20508;-72
2024/01/05 09:22:57;;;;;;;4.78;3.60;;;;;;;;;;4944156;28;20027;-67
2024/01/05 09:25:22;;;;;;;5.13;3.45;;;;;;;;;;4936493;29;20086;-66
2024/01/05 09:27:48;;;;;;;3.50;3.17;;;;;;;;;;4936476;29;20074;-66
2024/01/05 09:30:14;;;;;;;4.55;3.30;;;;;;;;;;4936251;29;20028;-68
2024/01/05 09:32:40;;;;;;;3.97;3.25;;;;;;;;;;4938444;29;20039;-71
2024/01/05 09:35:08;;;;;;;4.00;3.10;;;;;;;;;;4933943;28;20032;-68
2024/01/05 09:37:35;;;;;;;4.95;2.97;;;;;;;;;;4937358;29;20107;-71
2024/01/05 09:40:01;;;;;;;4.05;2.90;;;;;;;;;;4947057;28;20023;-68
2024/01/05 09:42:26;;;;;;;7.57;2.97;;;;;;;;;;4952382;28;20404;-67
2024/01/05 09:44:53;;;;;;;4.28;3.10;;;;;;;;;;4945652;28;20070;-68
2024/01/05 09:47:19;;;;;;;5.47;3.28;;;;;;;;;;4942819;28;20027;-68
2024/01/05 09:49:48;;;;;;;4.90;2.90;;;;;;;;;;4941986;29;20043;-68
2024/01/05 09:52:15;;;;;;;7.05;3.10;;;;;;;;;;4939114;29;20789;-69
2024/01/05 09:54:40;;;;;;;3.50;2.65;;;;;;;;;;4942980;28;20806;-68
2024/01/05 09:57:09;;;;;;;3.50;2.75;;;;;;;;;;4940344;28;20030;-71
2024/01/05 09:59:35;;;;;;;3.38;2.83;;;;;;;;;;4939070;29;20118;-66
2024/01/05 10:02:09;;;;;;;3.55;2.85;;;;;;;;;;4938444;28;20110;-66
2024/01/05 10:04:36;;;;;;;4.38;3.10;;;;;;;;;;4951090;29;20424;-66
2024/01/05 10:07:01;;;;;;;5.47;3.15;;;;;;;;;;4944718;28;20042;-70
2024/01/05 10:09:30;;;;;;;4.30;2.83;;;;;;;;;;4942613;29;20090;-68
2024/01/05 10:11:57;;;;;;;5.35;3.38;;;;;;;;;;4940377;28;20090;-69
2024/01/05 10:14:26;;;;;;;5.03;2.90;;;;;;;;;;4941800;29;20039;-71
2024/01/05 10:17:10;;;;;;;4.95;2.85;;;;;;;;;;4942103;29;20043;-72
2024/01/05 10:19:35;;;;;;;4.25;3.08;;;;;;;;;;4938478;28;20094;-73
2024/01/05 10:22:12;;;;;;;5.53;3.25;;;;;;;;;;4934694;29;20035;-70
2024/01/05 10:24:39;;;;;;;5.22;3.22;;;;;;;;;;4933872;29;20743;-69
2024/01/05 10:27:12;;;;;;;5.35;3.33;;;;;;;;;;4917356;29;20400;-70
2024/01/05 10:29:42;;;;;;;4.57;2.92;;;;;;;;;;4934963;29;20650;-68
2024/01/05 10:32:12;;;;;;;5.93;3.10;;;;;;;;;;4934737;29;20032;-69
2024/01/05 10:34:43;;;;;;;3.92;3.08;;;;;;;;;;4934237;29;20115;-69
2024/01/05 10:37:09;;;;;;;4.13;3.33;;;;;;;;;;4934327;29;20036;-70
2024/01/05 10:39:35;;;;;;;5.68;2.80;;;;;;;;;;4937193;28;20031;-67
2024/01/05 10:42:19;;;;;;;5.38;3.00;;;;;;;;;;4941124;29;20039;-68
2024/01/05 10:44:46;;;;;;;8.13;3.30;;;;;;;;;;4937793;28;20031;-67
2024/01/05 10:47:14;;;;;;;4.85;3.65;;;;;;;;;;4933729;29;20028;-67
2024/01/05 10:49:49;;;;;;;7.97;4.45;;;;;;;;;;4931904;29;20032;-68
2024/01/05 10:52:19;;;;;;;5.70;3.45;;;;;;;;;;4931770;29;20171;-68
2024/01/05 10:54:50;;;;;;;4.90;3.40;;;;;;;;;;4915574;29;20065;-68
2024/01/05 10:57:16;;;;;;;7.53;3.20;;;;;;;;;;4935115;29;20608;-67
2024/01/05 10:59:51;;;;;;;6.30;3.45;;;;;;;;;;4936943;29;20028;-68
2024/01/05 11:02:40;;;;;;;3.95;3.28;;;;;;;;;;4936456;29;20028;-68
2024/01/05 11:05:11;;;;;;;4.35;3.35;;;;;;;;;;4936673;29;20488;-69
2024/01/05 11:07:40;;;;;;;4.32;3.30;;;;;;;;;;4937185;29;20503;-69
2024/01/05 11:10:35;;;;;;;8.07;3.50;;;;;;;;;;4936713;29;20032;-68
2024/01/05 11:13:10;;;;;;;4.50;3.33;;;;;;;;;;4937219;29;20114;-70
2024/01/05 11:15:43;;;;;;;6.88;3.20;;;;;;;;;;4937293;29;20030;-68
2024/01/05 11:18:42;;;;;;;4.78;3.08;;;;;;;;;;4937149;29;20036;-68
2024/01/05 11:21:16;;;;;;;4.25;3.25;;;;;;;;;;4937445;29;20110;-68
2024/01/05 11:23:43;;;;;;;3.75;3.10;;;;;;;;;;4937074;29;20063;-68
2024/01/05 11:26:32;;;;;;;4.07;3.20;;;;;;;;;;4920298;29;20070;-68
2024/01/05 11:28:57;;;;;;;3.60;2.70;;;;;;;;;;4936926;29;20035;-68
2024/01/05 11:31:46;;;;;;;4.20;3.05;;;;;;;;;;4937157;29;20034;-68
2024/01/05 11:34:34;;;;;;;4.45;3.15;;;;;;;;;;4924421;29;20052;-68
2024/01/05 11:37:06;;;;;;;4.35;2.90;;;;;;;;;;4937070;29;20107;-68
2024/01/05 11:39:44;;;;;;;4.90;2.92;;;;;;;;;;4936694;29;20510;-68
2024/01/05 11:42:29;;;;;;;4.57;3.22;;;;;;;;;;4936797;29;20107;-68
2024/01/05 11:44:56;;;;;;;4.53;3.10;;;;;;;;;;4936722;29;20064;-68
2024/01/05 11:47:47;;;;;;;7.30;3.25;;;;;;;;;;4936631;29;20535;-68
2024/01/05 11:50:26;;;;;;;4.85;3.70;;;;;;;;;;4936480;29;20119;-68
2024/01/05 11:53:10;;;;;;;5.60;3.38;;;;;;;;;;4936843;29;20103;-68
2024/01/05 11:55:40;;;;;;;4.53;2.85;;;;;;;;;;4936484;29;20047;-68
2024/01/05 11:58:12;;;;;;;4.40;3.00;;;;;;;;;;4936483;29;20038;-69
2024/01/05 12:00:40;;;;;;;4.13;3.33;;;;;;;;;;4936328;29;20042;-68
2024/01/05 12:03:05;;;;;;;6.03;3.60;;;;;;;;;;4936343;29;20399;-68
2024/01/05 12:05:31;;;;;;;5.05;2.88;;;;;;;;;;4936244;29;20043;-68
2024/01/05 12:07:58;;;;;;;5.13;3.22;;;;;;;;;;4936154;29;20070;-68
2024/01/05 12:10:24;;;;;;;4.28;2.80;;;;;;;;;;4936205;29;20031;-69
2024/01/05 12:12:56;;;;;;;5.95;3.10;;;;;;;;;;4936068;29;20063;-70
2024/01/05 12:15:23;;;;;;;6.00;4.00;;;;;;;;;;4936450;29;20036;-70
2024/01/05 12:17:49;;;;;;;6.88;3.20;;;;;;;;;;4936316;29;20027;-70
2024/01/05 12:20:17;;;;;;;6.40;3.35;;;;;;;;;;4936810;29;20473;-70
2024/01/05 12:22:43;;;;;;;4.30;3.20;;;;;;;;;;4936009;29;20036;-72
2024/01/05 12:25:10;;;;;;;6.50;4.05;;;;;;;;;;4935888;29;20091;-69
2024/01/05 12:27:40;;;;;;;5.03;2.83;;;;;;;;;;4918855;29;20031;-70
2024/01/05 12:30:07;;;;;;;5.45;3.17;;;;;;;;;;4936086;29;20028;-69
2024/01/05 12:32:33;;;;;;;5.78;3.42;;;;;;;;;;4937131;29;20377;-72
2024/01/05 12:35:03;;;;;;;5.22;3.42;;;;;;;;;;4935766;29;20464;-69
2024/01/05 12:37:29;;;;;;;6.25;3.20;;;;;;;;;;4935791;29;20039;-69
2024/01/05 12:39:54;;;;;;;6.72;3.33;;;;;;;;;;4935631;29;20027;-69
2024/01/05 12:42:21;;;;;;;5.97;3.08;;;;;;;;;;4935735;29;20067;-70
2024/01/05 12:44:46;;;;;;;8.35;2.97;;;;;;;;;;4935917;29;20380;-69
2024/01/05 12:47:12;;;;;;;3.75;2.53;;;;;;;;;;4935617;29;20032;-69
2024/01/05 12:49:37;;;;;;;7.53;3.30;;;;;;;;;;4935548;29;20031;-69
2024/01/05 12:52:06;;;;;;;7.97;3.38;;;;;;;;;;4935859;29;20492;-69
2024/01/05 12:54:42;;;;;;;11.05;4.53;;;;;;;;;;4935418;29;20035;-69
2024/01/05 12:57:10;;;;;;;8.93;3.03;;;;;;;;;;4935364;29;20020;-69
2024/01/05 12:59:36;;;;;;;7.32;2.92;;;;;;;;;;4935235;29;20115;-71
2024/01/05 13:02:03;;;;;;;8.27;3.30;;;;;;;;;;4935329;29;20107;-68
2024/01/05 13:04:36;;;;;;;6.75;2.60;;;;;;;;;;4935576;29;20059;-68
2024/01/05 13:07:03;;;;;;;6.63;3.05;;;;;;;;;;4935033;29;20031;-68
2024/01/05 13:09:30;;;;;;;7.82;3.30;;;;;;;;;;4935365;29;20490;-68
2024/01/05 13:11:56;;;;;;;6.43;3.05;;;;;;;;;;4935123;29;20076;-67
2024/01/05 13:14:22;;;;;;;5.28;3.25;;;;;;;;;;4935710;29;20615;-70
2024/01/05 13:16:48;;;;;;;8.98;3.85;;;;;;;;;;4935873;29;20080;-67
2024/01/05 13:19:16;;;;;;;5.95;3.03;;;;;;;;;;4935799;29;20027;-67
2024/01/05 13:21:42;;;;;;;6.70;2.90;;;;;;;;;;4935919;29;20042;-68
2024/01/05 13:24:07;;;;;;;6.10;3.20;;;;;;;;;;4935307;29;20471;-67
2024/01/05 13:26:33;;;;;;;6.03;2.95;;;;;;;;;;4935934;29;20380;-67
2024/01/05 13:29:00;;;;;;;9.15;2.60;;;;;;;;;;4935603;29;20032;-68
2024/01/05 13:31:25;;;;;;;6.18;2.70;;;;;;;;;;4935761;29;20481;-66
2024/01/05 13:33:51;;;;;;;6.38;2.85;;;;;;;;;;4935295;29;20039;-67
2024/01/05 13:36:17;;;;;;;5.60;2.50;;;;;;;;;;4935374;29;20087;-68
2024/01/05 13:38:42;;;;;;;4.25;2.47;;;;;;;;;;4935094;29;20031;-67
2024/01/05 13:41:08;;;;;;;6.30;2.50;;;;;;;;;;4936015;29;20038;-67
2024/01/05 13:43:34;;;;;;;6.90;2.97;;;;;;;;;;4934979;29;20031;-67
2024/01/05 13:46:01;;;;;;;5.82;2.55;;;;;;;;;;4934612;29;20035;-67
2024/01/05 13:48:27;;;;;;;9.77;2.58;;;;;;;;;;4934900;29;20456;-70
2024/01/05 13:50:52;;;;;;;5.90;2.83;;;;;;;;;;4936206;29;20111;-67
2024/01/05 13:53:18;;;;;;;5.97;2.67;;;;;;;;;;4935841;29;20485;-67
2024/01/05 13:55:43;;;;;;;4.55;2.67;;;;;;;;;;4934720;29;20038;-76
2024/01/05 13:58:09;;;;;;;5.90;2.70;;;;;;;;;;4934518;29;20052;-67
2024/01/05 14:00:35;;;;;;;5.63;2.70;;;;;;;;;;4935296;29;20032;-67
2024/01/05 14:03:01;;;;;;;4.68;2.42;;;;;;;;;;4935000;29;20039;-67
2024/01/05 14:05:26;;;;;;;7.30;3.10;;;;;;;;;;4918051;29;20031;-67
2024/01/05 14:07:52;;;;;;;7.63;2.70;;;;;;;;;;4934801;29;20051;-67
2024/01/05 14:10:17;;;;;;;7.60;3.17;;;;;;;;;;4935947;29;20047;-66
2024/01/05 14:12:43;;;;;;;4.03;2.70;;;;;;;;;;4934654;29;20875;-67
2024/01/05 14:15:09;;;;;;;6.55;3.13;;;;;;;;;;4934765;29;20075;-67
2024/01/05 14:17:38;;;;;;;6.03;2.83;;;;;;;;;;4934771;29;20046;-67
2024/01/05 14:20:04;;;;;;;5.53;2.90;;;;;;;;;;4935160;29;20437;-66
2024/01/05 14:22:31;;;;;;;5.75;3.17;;;;;;;;;;4934587;29;20055;-66
2024/01/05 14:24:57;;;;;;;5.43;3.13;;;;;;;;;;4934576;29;20032;-66
2024/01/05 14:27:23;;;;;;;14.38;3.97;;;;;;;;;;4934185;29;20030;-66
2024/01/05 14:29:49;;;;;;;10.35;3.63;;;;;;;;;;4935486;29;20053;-66
2024/01/05 14:32:15;;;;;;;5.90;3.60;;;;;;;;;;4934087;29;20034;-67
2024/01/05 14:34:42;;;;;;;7.70;3.25;;;;;;;;;;4934811;29;20670;-71
2024/01/05 14:37:07;;;;;;;11.35;3.90;;;;;;;;;;4937166;29;20028;-75
2024/01/05 14:39:33;;;;;;;8.23;3.30;;;;;;;;;;4940670;29;20778;-70
2024/01/05 14:41:59;;;;;;;6.28;3.05;;;;;;;;;;4945852;29;20037;-75
2024/01/05 14:44:25;;;;;;;7.93;3.75;;;;;;;;;;4950341;28;20080;-73
2024/01/05 14:46:51;;;;;;;9.57;3.70;;;;;;;;;;4952760;28;20047;-72
2024/01/05 14:49:16;;;;;;;7.15;3.47;;;;;;;;;;4950997;28;20068;-69
2024/01/05 14:51:42;;;;;;;5.28;3.40;;;;;;;;;;4950620;29;20031;-73
2024/01/05 14:54:08;;;;;;;9.77;3.40;;;;;;;;;;4951406;28;20085;-69
2024/01/05 14:56:33;;;;;;;7.45;3.08;;;;;;;;;;4951914;29;20049;-69
2024/01/05 14:58:59;;;;;;;7.72;3.33;;;;;;;;;;4952532;29;20027;-69
2024/01/05 15:01:25;;;;;;;5.72;3.35;;;;;;;;;;4952130;29;20020;-69
2024/01/05 15:03:51;;;;;;;4.60;2.95;;;;;;;;;;4953065;28;20073;-72
2024/01/05 15:06:21;;;;;;;4.57;3.17;;;;;;;;;;4935288;29;20489;-69
2024/01/05 15:08:47;;;;;;;5.40;3.05;;;;;;;;;;4952793;29;20027;-69
2024/01/05 15:11:19;;;;;;;4.43;2.90;;;;;;;;;;4953006;29;20487;-69
2024/01/05 15:13:46;;;;;;;7.13;3.45;;;;;;;;;;4952512;29;20047;-69
2024/01/05 15:16:12;;;;;;;5.93;3.15;;;;;;;;;;4952622;29;20053;-70
2024/01/05 15:18:37;;;;;;;5.38;3.10;;;;;;;;;;4952716;29;20290;-69
2024/01/05 15:21:03;;;;;;;5.00;3.03;;;;;;;;;;4952538;29;20110;-70
2024/01/05 15:23:29;;;;;;;8.52;3.25;;;;;;;;;;4953177;29;20078;-69
2024/01/05 15:25:54;;;;;;;4.90;3.03;;;;;;;;;;4952479;28;20391;-69
2024/01/05 15:28:20;;;;;;;6.43;3.30;;;;;;;;;;4952483;28;20504;-69
2024/01/05 15:30:46;;;;;;;6.07;3.03;;;;;;;;;;4952525;29;20046;-69
2024/01/05 15:33:11;;;;;;;6.18;3.28;;;;;;;;;;4952484;28;20027;-73
2024/01/05 15:35:37;;;;;;;6.07;3.17;;;;;;;;;;4952793;29;20027;-69
2024/01/05 15:38:03;;;;;;;6.50;3.83;;;;;;;;;;4952449;29;20027;-69
2024/01/05 15:40:29;;;;;;;6.20;3.05;;;;;;;;;;4952300;29;20483;-69
2024/01/05 15:42:56;;;;;;;5.40;3.00;;;;;;;;;;4954104;28;20494;-69
2024/01/05 15:45:22;;;;;;;5.28;3.50;;;;;;;;;;4955863;29;20043;-71
2024/01/05 15:47:47;;;;;;;6.07;3.08;;;;;;;;;;4955940;29;20038;-69
2024/01/05 15:50:13;;;;;;;4.05;2.83;;;;;;;;;;4955854;29;20035;-69
2024/01/05 15:52:39;;;;;;;5.38;3.00;;;;;;;;;;4955836;28;20023;-70
2024/01/05 15:55:04;;;;;;;4.68;3.20;;;;;;;;;;4938612;28;20531;-69
2024/01/05 15:57:30;;;;;;;5.68;3.20;;;;;;;;;;4947732;29;20478;-69
2024/01/05 15:59:55;;;;;;;6.95;3.10;;;;;;;;;;4956715;28;20035;-68
2024/01/05 16:02:21;;;;;;;5.90;3.20;;;;;;;;;;4957227;29;20023;-70
2024/01/05 16:04:47;;;;;;;5.22;3.20;;;;;;;;;;4959237;29;20031;-68
2024/01/05 16:07:12;;;;;;;5.95;3.22;;;;;;;;;;4960505;29;20118;-68
2024/01/05 16:09:38;;;;;;;5.32;3.05;;;;;;;;;;4956650;28;20059;-68
2024/01/05 16:12:05;;;;;;;9.00;3.00;;;;;;;;;;4956280;29;20090;-69
2024/01/05 16:14:31;;;;;;;6.28;3.45;;;;;;;;;;4956490;28;20055;-69
2024/01/05 16:16:57;;;;;;;7.03;3.53;;;;;;;;;;4943308;29;20054;-68
2024/01/05 16:19:23;;;;;;;3.90;2.67;;;;;;;;;;4936618;29;20031;-69
2024/01/05 16:21:49;;;;;;;5.47;3.40;;;;;;;;;;4937859;29;20024;-75
2024/01/05 16:24:14;;;;;;;6.75;3.53;;;;;;;;;;4936369;29;20049;-69
2024/01/05 16:26:40;;;;;;;7.35;4.13;;;;;;;;;;4936605;29;20028;-69
2024/01/05 16:29:06;;;;;;;5.82;3.72;;;;;;;;;;4936712;29;20062;-68
2024/01/05 16:31:31;;;;;;;6.78;3.65;;;;;;;;;;4936993;29;20034;-69
2024/01/05 16:33:57;;;;;;;5.28;3.67;;;;;;;;;;4937389;29;20473;-69
2024/01/05 16:36:24;;;;;;;7.57;4.07;;;;;;;;;;4936873;29;20086;-69
2024/01/05 16:38:49;;;;;;;7.32;4.05;;;;;;;;;;4936241;29;20050;-75
2024/01/05 16:41:19;;;;;;;10.27;5.53;;;;;;;;;;4938242;29;20090;-70
2024/01/05 16:43:45;;;;;;;10.02;5.47;;;;;;;;;;4937261;29;20035;-68
2024/01/05 16:46:10;;;;;;;10.45;5.03;;;;;;;;;;4937569;29;20071;-69
2024/01/05 16:48:36;;;;;;;13.10;5.70;;;;;;;;;;4937836;29;20039;-76
2024/01/05 16:51:01;;;;;;;13.48;5.22;;;;;;;;;;4920762;29;20028;-70
2024/01/05 16:53:28;;;;;;;12.93;5.63;;;;;;;;;;4937683;29;20032;-69
2024/01/05 16:55:54;;;;;;;17.42;6.55;;;;;;;;;;4941640;29;20114;-68
2024/01/05 16:58:20;;;;;;;12.27;6.28;;;;;;;;;;4940691;29;20028;-68
2024/01/05 17:00:45;;;;;;;14.75;6.57;;;;;;;;;;4939707;29;20042;-70
2024/01/05 17:03:13;;;;;;;13.15;5.93;;;;;;;;;;4938878;29;20110;-69
2024/01/05 17:05:42;;;;;;;14.30;6.00;;;;;;;;;;4938661;29;20091;-69
2024/01/05 17:08:08;;;;;;;9.95;5.78;;;;;;;;;;4939068;29;20425;-69
2024/01/05 17:10:35;;;;;;;13.15;6.18;;;;;;;;;;4939448;29;20039;-70
2024/01/05 17:13:00;;;;;;;13.68;5.90;;;;;;;;;;4937918;29;20066;-70
2024/01/05 17:15:26;;;;;;;9.63;5.60;;;;;;;;;;4937692;29;20027;-72
2024/01/05 17:17:52;;;;;;;13.32;5.85;;;;;;;;;;4959822;28;20066;-69
2024/01/05 17:20:17;;;;;;;9.63;5.50;;;;;;;;;;4956803;29;20031;-68
2024/01/05 17:22:44;;;;;;;10.18;5.65;;;;;;;;;;4956502;28;20047;-70
2024/01/05 17:25:10;;;;;;;10.02;5.75;;;;;;;;;;4959514;28;20114;-70
2024/01/05 17:27:36;;;;;;;13.88;5.93;;;;;;;;;;4956599;29;20034;-74
2024/01/05 17:30:03;;;;;;;12.20;5.57;;;;;;;;;;4956954;29;20057;-71
2024/01/05 17:32:30;;;;;;;8.45;5.57;;;;;;;;;;4955734;29;20033;-73
2024/01/05 17:34:55;;;;;;;10.32;5.90;;;;;;;;;;4956485;29;20023;-71
2024/01/05 17:37:21;;;;;;;14.48;6.93;;;;;;;;;;4957276;29;20027;-69
2024/01/05 17:39:46;;;;;;;12.50;7.25;;;;;;;;;;4957173;29;20042;-69
2024/01/05 17:42:12;;;;;;;13.27;6.72;;;;;;;;;;4960664;29;20468;-69
2024/01/05 17:44:38;;;;;;;16.25;7.28;;;;;;;;;;4940067;29;20027;-70
2024/01/05 17:47:04;;;;;;;10.57;6.70;;;;;;;;;;4956525;29;20110;-69
2024/01/05 17:49:30;;;;;;;12.93;6.88;;;;;;;;;;4936040;29;20460;-70
2024/01/05 17:51:55;;;;;;;10.02;6.43;;;;;;;;;;4935155;29;20087;-70
2024/01/05 17:54:21;;;;;;;12.10;6.78;;;;;;;;;;4935828;28;20067;-69
2024/01/05 17:56:47;;;;;;;13.15;6.60;;;;;;;;;;4920104;29;20496;-71
2024/01/05 17:59:15;;;;;;;10.77;7.07;;;;;;;;;;4936276;29;20046;-69
2024/01/05 18:01:44;;;;;;;11.35;6.93;;;;;;;;;;4931971;29;20061;-70
2024/01/05 18:04:11;;;;;;;13.07;6.72;;;;;;;;;;4955274;28;20057;-70
2024/01/05 18:06:37;;;;;;;12.00;6.90;;;;;;;;;;4957730;28;20027;-70
2024/01/05 18:09:05;;;;;;;17.33;7.68;;;;;;;;;;4955112;29;20035;-68
2024/01/05 18:11:31;;;;;;;11.77;6.47;;;;;;;;;;4954328;29;20034;-68
2024/01/05 18:13:58;;;;;;;12.18;7.20;;;;;;;;;;4954809;28;20519;-71
2024/01/05 18:16:29;;;;;;;10.32;7.15;;;;;;;;;;4954614;29;20068;-68
2024/01/05 18:18:58;;;;;;;13.48;6.95;;;;;;;;;;4954520;29;20024;-69
2024/01/05 18:21:25;;;;;;;13.68;7.43;;;;;;;;;;4954789;29;20034;-69
2024/01/05 18:23:52;;;;;;;13.80;7.28;;;;;;;;;;4950880;28;20601;-70
2024/01/05 18:26:19;;;;;;;10.93;7.18;;;;;;;;;;4934755;29;20039;-69
2024/01/05 18:28:46;;;;;;;11.00;7.20;;;;;;;;;;4935542;29;20432;-69
2024/01/05 18:31:12;;;;;;;11.10;7.05;;;;;;;;;;4935148;29;20163;-70
2024/01/05 18:33:38;;;;;;;12.32;7.68;;;;;;;;;;4918051;29;20475;-72
2024/01/05 18:36:06;;;;;;;12.05;7.32;;;;;;;;;;4934717;29;20032;-70
2024/01/05 18:38:31;;;;;;;14.88;8.07;;;;;;;;;;4934742;29;20118;-70
2024/01/05 18:40:59;;;;;;;12.15;7.60;;;;;;;;;;4935542;29;20175;-69
2024/01/05 18:43:24;;;;;;;12.18;7.07;;;;;;;;;;4934409;29;20392;-70
2024/01/05 18:45:50;;;;;;;11.73;7.10;;;;;;;;;;4932455;29;20035;-70
2024/01/05 18:48:15;;;;;;;13.27;7.40;;;;;;;;;;4954291;28;20031;-65
2024/01/05 18:50:41;;;;;;;13.23;7.78;;;;;;;;;;4953944;29;20038;-72
2024/01/05 18:53:07;;;;;;;14.27;8.55;;;;;;;;;;4953630;29;20050;-71
2024/01/05 18:55:32;;;;;;;13.30;7.68;;;;;;;;;;4953577;29;20031;-70
2024/01/05 18:57:58;;;;;;;14.82;7.63;;;;;;;;;;4953048;29;20028;-70
2024/01/05 19:00:23;;;;;;;13.00;7.10;;;;;;;;;;4953878;29;20035;-72
2024/01/05 19:02:49;;;;;;;14.48;7.18;;;;;;;;;;4954860;29;20047;-71
2024/01/05 19:05:14;;;;;;;14.70;7.95;;;;;;;;;;4955191;28;20449;-70
2024/01/05 19:07:40;;;;;;;13.50;8.35;;;;;;;;;;4954748;29;20440;-69
2024/01/05 19:10:06;;;;;;;11.77;7.63;;;;;;;;;;4953327;29;20499;-70
2024/01/05 19:12:31;;;;;;;11.93;7.47;;;;;;;;;;4953849;29;20112;-72
2024/01/05 19:14:57;;;;;;;13.68;7.88;;;;;;;;;;4953629;28;20126;-70
2024/01/05 19:17:22;;;;;;;11.75;7.25;;;;;;;;;;4955702;28;20095;-72
2024/01/05 19:19:50;;;;;;;10.45;7.32;;;;;;;;;;4959262;29;20098;-69
2024/01/05 19:22:16;;;;;;;10.90;7.30;;;;;;;;;;4961255;28;20035;-70
2024/01/05 19:24:41;;;;;;;13.35;7.82;;;;;;;;;;4959328;28;20035;-70
2024/01/05 19:27:07;;;;;;;12.02;8.05;;;;;;;;;;4958507;29;20381;-69
2024/01/05 19:29:32;;;;;;;12.77;8.40;;;;;;;;;;4957980;28;20046;-70
2024/01/05 19:31:58;;;;;;;11.80;7.70;;;;;;;;;;4957737;28;20031;-69
2024/01/05 19:34:23;;;;;;;12.82;8.82;;;;;;;;;;4958586;28;20055;-71
2024/01/05 19:36:49;;;;;;;15.57;8.05;;;;;;;;;;4956719;28;20042;-69
2024/01/05 19:39:15;;;;;;;11.05;8.05;;;;;;;;;;4957452;29;20037;-68
2024/01/05 19:41:44;;;;;;;12.35;8.52;;;;;;;;;;4939985;29;20393;-69
2024/01/05 19:44:10;;;;;;;13.05;8.75;;;;;;;;;;4956658;28;20031;-70
2024/01/05 19:46:37;;;;;;;17.00;10.05;;;;;;;;;;4956172;28;20045;-70
2024/01/05 19:49:02;;;;;;;12.15;8.07;;;;;;;;;;4956252;29;20035;-69
2024/01/05 19:51:28;;;;;;;13.32;8.52;;;;;;;;;;4956111;29;20391;-69
2024/01/05 19:53:53;;;;;;;14.25;8.90;;;;;;;;;;4957066;28;20634;-70
2024/01/05 19:56:21;;;;;;;13.73;9.23;;;;;;;;;;4963376;29;20042;-74
2024/01/05 19:58:47;;;;;;;15.88;8.77;;;;;;;;;;4961470;29;20468;-70
2024/01/05 20:01:13;;;;;;;12.90;8.45;;;;;;;;;;4958756;29;20027;-70
2024/01/05 20:03:39;;;;;;;12.55;8.38;;;;;;;;;;4958763;28;20042;-70
2024/01/05 20:06:05;;;;;;;10.23;7.68;;;;;;;;;;4958000;28;20035;-70
2024/01/05 20:08:30;;;;;;;11.73;7.95;;;;;;;;;;4958736;28;20031;-71
2024/01/05 20:10:57;;;;;;;13.88;7.78;;;;;;;;;;4957050;28;20035;-70
2024/01/05 20:13:23;;;;;;;12.45;8.32;;;;;;;;;;4956207;29;20047;-70
2024/01/05 20:15:49;;;;;;;12.40;7.60;;;;;;;;;;4956675;28;20041;-71
2024/01/05 20:18:14;;;;;;;11.45;7.35;;;;;;;;;;4956401;28;20031;-70
2024/01/05 20:20:41;;;;;;;12.68;7.68;;;;;;;;;;4939131;29;20379;-70
2024/01/05 20:23:09;;;;;;;11.95;7.43;;;;;;;;;;4956317;29;20019;-71
2024/01/05 20:25:37;;;;;;;13.75;8.27;;;;;;;;;;4955612;28;20032;-71
2024/01/05 20:28:05;;;;;;;11.25;7.63;;;;;;;;;;4955831;28;20118;-70
2024/01/05 20:30:31;;;;;;;12.10;7.57;;;;;;;;;;4942636;28;20421;-69
2024/01/05 20:32:57;;;;;;;10.43;7.43;;;;;;;;;;4936348;28;20075;-68
2024/01/05 20:35:22;;;;;;;12.30;7.75;;;;;;;;;;4937495;29;20094;-68
2024/01/05 20:37:48;;;;;;;10.73;7.78;;;;;;;;;;4936069;29;20038;-69
2024/01/05 20:40:13;;;;;;;11.57;8.02;;;;;;;;;;4935981;29;20031;-69
2024/01/05 20:42:39;;;;;;;11.13;7.10;;;;;;;;;;4938620;29;20028;-69
2024/01/05 20:45:10;;;;;;;10.50;8.00;;;;;;;;;;4938557;29;20126;-71
2024/01/05 20:47:36;;;;;;;10.20;7.22;;;;;;;;;;4937479;29;20035;-69
2024/01/05 20:50:03;;;;;;;11.70;7.50;;;;;;;;;;4937594;28;20031;-69
2024/01/05 20:52:30;;;;;;;12.40;7.53;;;;;;;;;;4943094;29;20094;-70
2024/01/05 20:54:56;;;;;;;12.45;7.90;;;;;;;;;;4937880;29;20394;-69
2024/01/05 20:57:22;;;;;;;11.85;7.68;;;;;;;;;;4937228;29;20024;-72
2024/01/05 20:59:48;;;;;;;14.80;7.90;;;;;;;;;;4938965;29;20039;-71
2024/01/05 21:02:15;;;;;;;11.57;7.63;;;;;;;;;;4938109;29;20038;-73
2024/01/05 21:04:40;;;;;;;14.48;8.98;;;;;;;;;;4937822;29;20043;-69
2024/01/05 21:07:08;;;;;;;11.75;7.72;;;;;;;;;;4938259;29;20028;-68
2024/01/05 21:09:34;;;;;;;11.23;7.78;;;;;;;;;;4937482;29;20067;-69
2024/01/05 21:12:00;;;;;;;11.50;7.30;;;;;;;;;;4939044;29;20083;-69
2024/01/05 21:14:25;;;;;;;10.73;7.57;;;;;;;;;;4938031;29;20047;-69
2024/01/05 21:16:52;;;;;;;12.13;7.53;;;;;;;;;;4923715;29;20071;-70
2024/01/05 21:19:18;;;;;;;9.88;7.55;;;;;;;;;;4939332;29;20048;-69
2024/01/05 21:21:46;;;;;;;14.65;7.95;;;;;;;;;;4970014;28;20062;-70
2024/01/05 21:24:12;;;;;;;13.52;8.05;;;;;;;;;;4976054;28;20054;-69
2024/01/05 21:26:44;;;;;;;11.80;7.80;;;;;;;;;;4976927;28;20506;-69
2024/01/05 21:29:10;;;;;;;14.63;7.90;;;;;;;;;;4975589;28;20109;-69
2024/01/05 21:31:35;;;;;;;11.27;7.65;;;;;;;;;;4976320;28;20053;-69
2024/01/05 21:34:01;;;;;;;12.95;8.00;;;;;;;;;;4976269;28;20035;-69
2024/01/05 21:36:27;;;;;;;11.45;7.50;;;;;;;;;;4976007;28;20402;-70
2024/01/05 21:38:53;;;;;;;11.02;7.75;;;;;;;;;;4975240;28;20035;-70
2024/01/05 21:41:19;;;;;;;12.07;7.60;;;;;;;;;;4974853;28;20483;-69
2024/01/05 21:43:45;;;;;;;11.40;8.05;;;;;;;;;;4976521;28;20069;-69
2024/01/05 21:46:11;;;;;;;15.88;7.97;;;;;;;;;;4976421;28;20045;-69
2024/01/05 21:48:37;;;;;;;11.32;8.27;;;;;;;;;;4976959;28;20023;-68
2024/01/05 21:51:03;;;;;;;11.23;7.72;;;;;;;;;;4977433;28;20018;-68
2024/01/05 21:53:29;;;;;;;11.68;7.63;;;;;;;;;;4975429;28;20105;-68
2024/01/05 21:55:55;;;;;;;13.60;7.97;;;;;;;;;;4974486;28;20112;-70
2024/01/05 21:58:20;;;;;;;11.52;7.35;;;;;;;;;;4974493;28;20066;-70
2024/01/05 22:00:46;;;;;;;11.38;7.82;;;;;;;;;;4975225;28;20035;-69
2024/01/05 22:03:12;;;;;;;13.57;7.85;;;;;;;;;;4957573;28;20023;-72
2024/01/05 22:05:38;;;;;;;10.70;7.43;;;;;;;;;;4974918;28;20038;-69
2024/01/05 22:08:04;;;;;;;9.38;7.47;;;;;;;;;;4957890;28;20027;-70
2024/01/05 22:10:29;;;;;;;11.10;7.65;;;;;;;;;;4974736;28;20027;-68
2024/01/05 22:12:57;;;;;;;13.00;7.93;;;;;;;;;;4969690;28;20023;-68
2024/01/05 22:15:24;;;;;;;51.67;10.55;;;;;;;;;;4958854;29;20030;-69
2024/01/05 22:17:49;;;;;;;29.15;9.15;;;;;;;;;;4938709;29;20034;-69
2024/01/05 22:20:15;;;;;;;31.23;9.13;;;;;;;;;;4954722;28;20484;-68
2024/01/05 22:22:40;;;;;;;19.83;8.02;;;;;;;;;;4954657;29;20385;-69
2024/01/05 22:25:07;;;;;;;15.60;8.40;;;;;;;;;;4954656;29;20031;-69
2024/01/05 22:27:32;;;;;;;24.05;8.40;;;;;;;;;;4955374;29;20031;-69
2024/01/05 22:29:58;;;;;;;20.13;9.02;;;;;;;;;;4954833;29;20078;-69
2024/01/05 22:32:24;;;;;;;15.98;8.20;;;;;;;;;;4954404;28;20361;-68
2024/01/05 22:34:49;;;;;;;21.33;8.05;;;;;;;;;;4954418;28;20501;-69
2024/01/05 22:37:15;;;;;;;17.27;9.15;;;;;;;;;;4954354;29;20086;-69
2024/01/05 22:39:41;;;;;;;19.35;8.75;;;;;;;;;;4954941;29;20031;-70
2024/01/05 22:42:07;;;;;;;21.35;8.63;;;;;;;;;;4954452;28;20388;-69
2024/01/05 22:44:33;;;;;;;21.15;8.82;;;;;;;;;;4945792;28;20035;-69